CST,Max TemperatureF,Mean TemperatureF,Min TemperatureF,Max Dew PointF,MeanDew PointF,Min DewpointF,Max Humidity, Mean Humidity, Min Humidity, Max Sea Level PressureIn, Mean Sea Level PressureIn, Min Sea Level PressureIn, Max VisibilityMiles, Mean VisibilityMiles, Min VisibilityMiles, Max Wind SpeedMPH, Mean Wind SpeedMPH, Max Gust SpeedMPH,PrecipitationIn, CloudCover, Events, WindDirDegrees
2012-1-1,34,27,20,30,21,13,85,76,69,30.34,30.07,29.80,10,10,7,36,27,48,0.00,7,Snow,298
2012-1-2,21,15,9,13,10,5,84,73,64,30.50,30.44,30.33,10,10,10,25,18,34,0.00,2,,305
2012-1-3,29,19,9,24,14,6,89,80,68,30.42,30.06,29.83,10,10,10,15,6,25,0.00,0,,162
2012-1-4,40,31,22,32,27,21,94,85,72,30.10,30.01,29.89,10,10,10,13,8,17,0.00,0,,258
2012-1-5,54,39,24,40,31,23,94,79,59,29.94,29.75,29.62,10,10,10,10,4,,0.00,0,,224
2012-1-6,48,42,36,32,31,26,83,68,51,29.81,29.73,29.63,10,10,10,20,10,28,0.00,2,,275
2012-1-7,41,33,25,29,26,22,88,76,59,30.17,30.07,29.91,10,10,10,23,11,29,0.00,3,,274
2012-1-8,41,28,15,30,23,14,92,79,55,30.26,30.21,30.14,10,10,10,10,2,,0.00,0,,196
2012-1-9,52,41,30,32,28,23,80,63,45,30.03,29.92,29.89,10,10,10,18,12,24,0.00,0,,252
2012-1-10,54,39,24,35,29,23,93,72,44,29.95,29.82,29.69,10,10,10,12,3,,0.00,0,,207
2012-1-11,40,27,14,35,23,5,92,80,66,29.90,29.74,29.58,10,9,2,31,13,40,0.00,4,Snow,312
2012-1-12,15,12,9,8,4,2,76,71,68,29.89,29.85,29.81,10,10,5,24,21,32,0.00,8,Snow,317
2012-1-13,14,10,5,6,3,0,82,76,60,29.98,29.95,29.89,10,9,3,15,11,20,0.00,6,Snow,293
2012-1-14,28,18,7,26,14,4,91,84,75,30.02,29.98,29.95,10,8,1,8,4,,0.00,7,Snow,138
2012-1-15,43,26,10,30,21,8,94,80,55,30.06,29.87,29.67,10,9,0,17,6,24,0.00,1,Fog,130
2012-1-16,32,26,21,29,19,12,92,74,57,29.94,29.82,29.68,10,10,10,20,10,26,0.00,1,,329
2012-1-17,17,13,9,10,4,-1,80,67,50,30.25,30.13,29.98,10,9,3,23,16,28,0.00,4,Snow,317
2012-1-18,29,14,0,18,6,-5,83,74,59,30.18,29.89,29.66,10,10,10,28,8,33,0.00,1,,173
2012-1-19,6,-2,-10,-9,-15,-18,71,58,35,30.17,30.10,29.99,10,10,10,18,11,29,0.00,0,,281
2012-1-20,14,7,0,6,0,-11,84,72,52,30.20,30.11,30.06,10,7,1,8,4,,0.00,7,Snow,122
2012-1-21,19,7,-5,16,0,-11,86,81,74,30.21,30.07,29.83,10,10,3,22,4,30,0.00,4,Snow,141
2012-1-22,28,24,21,28,23,20,95,91,86,29.68,29.57,29.51,10,4,1,16,11,24,0.00,8,Snow,104
2012-1-23,29,24,20,26,21,17,96,89,85,29.89,29.66,29.49,10,5,1,22,12,28,0.00,8,Snow,296
2012-1-24,24,22,19,20,17,16,89,84,76,30.25,30.14,29.94,10,10,7,14,8,16,0.00,7,Snow,262
2012-1-25,31,27,24,30,25,22,93,90,82,30.24,30.06,29.81,7,4,2,13,6,18,0.00,7,Snow,155
2012-1-26,39,32,24,34,28,23,95,83,70,29.80,29.73,29.69,10,8,2,23,9,26,0.00,1,,262
2012-1-27,35,27,19,34,24,17,94,85,69,29.93,29.79,29.69,10,9,1,28,9,33,0.00,4,Snow,247
2012-1-28,31,23,15,20,15,10,85,74,61,29.99,29.96,29.92,10,10,10,17,12,23,0.00,1,,268
2012-1-29,23,16,9,21,11,6,91,77,65,30.17,30.10,29.96,10,10,3,13,7,,0.00,2,Snow,287
2012-1-30,43,32,20,34,25,18,89,78,65,29.84,29.68,29.62,10,10,10,15,9,18,0.00,2,,133
2012-1-31,41,34,27,36,31,26,94,89,78,29.94,29.69,29.53,10,9,5,18,8,26,0.00,3,,271